Terminal Aerodrome Forecast
Issued by NWS

Home | Current Version | Previous Version | Text Only | Print | Product List | Glossary On
Versions: 1 2 3 4 5 6 7 8 9 10 11 12 13 14 15 16 17 18 19
000
FTAK31 PAJN 010534
TAFAPG
TAF
PAPG 010534Z 0106/0206 VRB03KT P6SM SCT030 BKN050
     FM011100 00000KT 3SM BR SCT005 BKN015
     FM011700 06004KT P6SM VCSH FEW015 SCT025 OVC050=

USA.gov is the U.S. government's official web portal to all federal, state and local government web resources and services.